메인 페이지
METAR-TAF:

METAR-TAF

공항 :

세인트존스, 뉴펀들랜드 래브라도, 캐나다

위도: 47-37N, 경도: 052-44W, 고도: 134m

현재 날씨관측

예보는 29분 전, 10:09시(UTC)에 발표되었습니다.
14kt, 순간 최대 풍속 23kt
온도 0°C
습도 86%
기압 1016 hPa
시정: 24.1km
고도 1600ft 상공 흐림

METAR: CYYT 151009Z 27014G23KT 15SM OVC016 M00/M02 A2999 RMK SC8 SLP165

시각: 07:08 (10:38 UTC)

예보

예보는 3 시간 57분 전, 06:41시(UTC)에 발표되었습니다.
예보 대상 시간: 15일 06시부터 16일 06시까지 (UTC)
12kt, 순간 최대 풍속 22kt
시정: 8.0km
고도 800ft 상공 흐림
약한눈
일시적
15일 06시부터 15일 13시까지 (UTC)
시정: 10km
고도 1200ft 상공 흐림
15일 1300시부터 (UTC)
서남서20kt, 순간 최대 풍속 30kt
시정: 3.2km
고도 700ft 상공 구름 보통
고도 1000ft 상공 흐림
약한눈
15일 1500시부터 (UTC)
서남서20kt, 순간 최대 풍속 35kt
시정: 4.8km
고도 700ft 상공 구름 보통
고도 1000ft 상공 흐림
약한비, 눈
15일 1800시부터 (UTC)
서남서20kt, 순간 최대 풍속 35kt
시정: 8.0km
고도 800ft 상공 흐림
약한비, 박무
15일 2100시부터 (UTC)
서남서20kt, 순간 최대 풍속 35kt
시정: 3.2km
고도 300ft 상공 흐림
약한비, 약한이슬비, 박무
16일 0000시부터 (UTC)
서북서20kt, 순간 최대 풍속 30kt
시정: 10km
고도 2000ft 상공 구름 많음

TAF: CYYT 150641Z 1506/1606 26012G22KT 5SM -SN OVC008 TEMPO 1506/1513 P6SM NSW OVC012 FM151300 24020G30KT 2SM -SN SCT007 OVC010 FM151500 24020G35KT 3SM -RASN SCT007 OVC010 FM151800 24020G35KT 5SM -RA BR OVC008 FM152100 25020G35KT 2SM -RA -DZ BR OVC003 FM160000 29020G30KT P6SM BKN020 RMK NXT FCST BY 151200Z

4,000개 이상의 공항 관측 자료 및 예보 (METAR 및 TAF 보고).

지도상에서 검색 가능한 기상관측소가 노란 점과 빨간 점으로 표시되어 있습니다.

기상관측소 명을 보려면 표시 위로 마우스를 이동하세요.

날씨 관측과 예보를 보려면 클릭하세요.

지도 변경 : 확대하려면 엑스 표시가 있는 녹색 버튼, 축소하려면 빼기 표시가 있는 녹색 버튼, 다음 페이지의 지도를 보려면 녹색 화살표를 클릭하세요.


METAR-TAF: